sensor_id;sensor_type;location;lat;lon;timestamp;P1;durP1;ratioP1;P2;durP2;ratioP2
27804;SDS011;15183;51.350;11.102;2022-07-06T00:00:07;0.98;;;0.40;;
27804;SDS011;15183;51.350;11.102;2022-07-06T00:02:35;1.02;;;0.50;;
27804;SDS011;15183;51.350;11.102;2022-07-06T00:05:02;1.17;;;0.30;;
27804;SDS011;15183;51.350;11.102;2022-07-06T00:07:28;0.70;;;0.50;;
27804;SDS011;15183;51.350;11.102;2022-07-06T00:09:55;0.85;;;0.43;;
27804;SDS011;15183;51.350;11.102;2022-07-06T00:12:23;3.30;;;0.40;;
27804;SDS011;15183;51.350;11.102;2022-07-06T00:14:50;0.40;;;0.40;;
27804;SDS011;15183;51.350;11.102;2022-07-06T00:17:16;0.50;;;0.50;;
27804;SDS011;15183;51.350;11.102;2022-07-06T00:19:43;2.20;;;0.40;;
27804;SDS011;15183;51.350;11.102;2022-07-06T00:22:09;0.90;;;0.40;;
27804;SDS011;15183;51.350;11.102;2022-07-06T00:24:35;0.98;;;0.50;;
27804;SDS011;15183;51.350;11.102;2022-07-06T00:27:02;2.03;;;0.50;;
27804;SDS011;15183;51.350;11.102;2022-07-06T00:29:29;2.15;;;0.60;;
27804;SDS011;15183;51.350;11.102;2022-07-06T00:31:56;1.92;;;0.50;;
27804;SDS011;15183;51.350;11.102;2022-07-06T00:34:22;0.50;;;0.50;;
27804;SDS011;15183;51.350;11.102;2022-07-06T00:36:49;1.05;;;0.60;;
27804;SDS011;15183;51.350;11.102;2022-07-06T00:39:15;0.98;;;0.60;;
27804;SDS011;15183;51.350;11.102;2022-07-06T00:41:44;0.70;;;0.50;;
27804;SDS011;15183;51.350;11.102;2022-07-06T00:44:10;0.95;;;0.57;;
27804;SDS011;15183;51.350;11.102;2022-07-06T00:46:37;3.20;;;0.60;;
27804;SDS011;15183;51.350;11.102;2022-07-06T00:49:03;1.20;;;0.57;;
27804;SDS011;15183;51.350;11.102;2022-07-06T00:51:30;0.77;;;0.52;;
27804;SDS011;15183;51.350;11.102;2022-07-06T00:54:02;1.95;;;0.50;;
27804;SDS011;15183;51.350;11.102;2022-07-06T00:56:30;2.22;;;0.50;;
27804;SDS011;15183;51.350;11.102;2022-07-06T00:58:59;2.95;;;0.60;;
27804;SDS011;15183;51.350;11.102;2022-07-06T01:01:26;1.15;;;0.47;;
27804;SDS011;15183;51.350;11.102;2022-07-06T01:03:53;1.95;;;0.60;;
27804;SDS011;15183;51.350;11.102;2022-07-06T01:06:20;4.63;;;0.50;;
27804;SDS011;15183;51.350;11.102;2022-07-06T01:08:47;3.50;;;0.77;;
27804;SDS011;15183;51.350;11.102;2022-07-06T01:11:13;0.77;;;0.50;;
27804;SDS011;15183;51.350;11.102;2022-07-06T01:13:41;1.38;;;0.57;;
27804;SDS011;15183;51.350;11.102;2022-07-06T01:16:08;2.20;;;0.50;;
27804;SDS011;15183;51.350;11.102;2022-07-06T01:18:34;1.25;;;0.60;;
27804;SDS011;15183;51.350;11.102;2022-07-06T01:21:08;2.60;;;0.50;;
27804;SDS011;15183;51.350;11.102;2022-07-06T01:23:43;1.85;;;0.50;;
27804;SDS011;15183;51.350;11.102;2022-07-06T01:26:13;3.00;;;0.40;;
27804;SDS011;15183;51.350;11.102;2022-07-06T01:28:46;1.00;;;0.50;;
27804;SDS011;15183;51.350;11.102;2022-07-06T01:31:18;1.08;;;0.35;;
27804;SDS011;15183;51.350;11.102;2022-07-06T01:33:48;1.85;;;0.50;;
27804;SDS011;15183;51.350;11.102;2022-07-06T01:36:17;1.83;;;0.60;;
27804;SDS011;15183;51.350;11.102;2022-07-06T01:38:47;4.95;;;0.57;;
27804;SDS011;15183;51.350;11.102;2022-07-06T01:41:15;5.97;;;0.90;;
27804;SDS011;15183;51.350;11.102;2022-07-06T01:43:42;5.75;;;0.70;;
27804;SDS011;15183;51.350;11.102;2022-07-06T01:46:10;1.38;;;0.50;;
27804;SDS011;15183;51.350;11.102;2022-07-06T01:48:37;2.13;;;0.55;;
27804;SDS011;15183;51.350;11.102;2022-07-06T01:51:03;0.70;;;0.50;;
27804;SDS011;15183;51.350;11.102;2022-07-06T01:53:30;1.27;;;0.50;;
27804;SDS011;15183;51.350;11.102;2022-07-06T01:55:57;1.73;;;0.70;;
27804;SDS011;15183;51.350;11.102;2022-07-06T01:58:23;2.08;;;0.70;;
27804;SDS011;15183;51.350;11.102;2022-07-06T02:00:50;1.58;;;0.47;;
27804;SDS011;15183;51.350;11.102;2022-07-06T02:03:16;3.17;;;0.70;;
27804;SDS011;15183;51.350;11.102;2022-07-06T02:05:42;5.63;;;0.60;;
27804;SDS011;15183;51.350;11.102;2022-07-06T02:08:09;2.47;;;0.50;;
27804;SDS011;15183;51.350;11.102;2022-07-06T02:10:35;2.00;;;0.75;;
27804;SDS011;15183;51.350;11.102;2022-07-06T02:13:02;1.20;;;0.57;;
27804;SDS011;15183;51.350;11.102;2022-07-06T02:15:29;0.77;;;0.65;;
27804;SDS011;15183;51.350;11.102;2022-07-06T02:17:55;1.13;;;0.50;;
27804;SDS011;15183;51.350;11.102;2022-07-06T02:20:22;0.55;;;0.40;;
27804;SDS011;15183;51.350;11.102;2022-07-06T02:22:48;0.95;;;0.63;;
27804;SDS011;15183;51.350;11.102;2022-07-06T02:25:15;0.47;;;0.40;;
27804;SDS011;15183;51.350;11.102;2022-07-06T02:27:41;1.27;;;0.52;;
27804;SDS011;15183;51.350;11.102;2022-07-06T02:30:08;1.50;;;0.60;;
27804;SDS011;15183;51.350;11.102;2022-07-06T02:32:34;1.50;;;0.50;;
27804;SDS011;15183;51.350;11.102;2022-07-06T02:35:01;0.63;;;0.50;;
27804;SDS011;15183;51.350;11.102;2022-07-06T02:37:27;1.17;;;0.50;;
27804;SDS011;15183;51.350;11.102;2022-07-06T02:39:54;0.60;;;0.45;;
27804;SDS011;15183;51.350;11.102;2022-07-06T02:42:20;0.80;;;0.65;;
27804;SDS011;15183;51.350;11.102;2022-07-06T02:44:47;3.88;;;0.63;;
27804;SDS011;15183;51.350;11.102;2022-07-06T02:47:13;1.05;;;0.50;;
27804;SDS011;15183;51.350;11.102;2022-07-06T02:49:39;2.80;;;0.52;;
27804;SDS011;15183;51.350;11.102;2022-07-06T02:52:06;2.10;;;0.45;;
27804;SDS011;15183;51.350;11.102;2022-07-06T02:54:32;0.73;;;0.45;;
27804;SDS011;15183;51.350;11.102;2022-07-06T02:56:59;2.50;;;0.80;;
27804;SDS011;15183;51.350;11.102;2022-07-06T02:59:25;1.45;;;0.30;;
27804;SDS011;15183;51.350;11.102;2022-07-06T03:01:52;1.98;;;0.40;;
27804;SDS011;15183;51.350;11.102;2022-07-06T03:04:18;3.65;;;0.55;;
27804;SDS011;15183;51.350;11.102;2022-07-06T03:06:44;0.63;;;0.45;;
27804;SDS011;15183;51.350;11.102;2022-07-06T03:09:11;0.77;;;0.50;;
27804;SDS011;15183;51.350;11.102;2022-07-06T03:11:37;1.15;;;0.40;;
27804;SDS011;15183;51.350;11.102;2022-07-06T03:14:04;1.25;;;0.50;;
27804;SDS011;15183;51.350;11.102;2022-07-06T03:16:32;1.00;;;0.50;;
27804;SDS011;15183;51.350;11.102;2022-07-06T03:18:58;1.45;;;0.75;;
27804;SDS011;15183;51.350;11.102;2022-07-06T03:21:25;1.17;;;0.50;;
27804;SDS011;15183;51.350;11.102;2022-07-06T03:23:51;1.45;;;0.52;;
27804;SDS011;15183;51.350;11.102;2022-07-06T03:26:17;1.48;;;0.75;;
27804;SDS011;15183;51.350;11.102;2022-07-06T03:28:44;2.03;;;0.45;;
27804;SDS011;15183;51.350;11.102;2022-07-06T03:31:10;1.67;;;0.60;;
27804;SDS011;15183;51.350;11.102;2022-07-06T03:33:37;0.40;;;0.40;;
27804;SDS011;15183;51.350;11.102;2022-07-06T03:36:03;1.55;;;0.52;;
27804;SDS011;15183;51.350;11.102;2022-07-06T03:38:30;0.95;;;0.50;;
27804;SDS011;15183;51.350;11.102;2022-07-06T03:40:57;2.95;;;0.80;;
27804;SDS011;15183;51.350;11.102;2022-07-06T03:43:23;2.42;;;0.70;;
27804;SDS011;15183;51.350;11.102;2022-07-06T03:45:50;2.35;;;0.70;;
27804;SDS011;15183;51.350;11.102;2022-07-06T03:48:16;1.10;;;0.70;;
27804;SDS011;15183;51.350;11.102;2022-07-06T03:50:42;3.72;;;0.80;;
27804;SDS011;15183;51.350;11.102;2022-07-06T03:53:09;1.63;;;0.50;;
27804;SDS011;15183;51.350;11.102;2022-07-06T03:55:36;1.02;;;0.85;;
27804;SDS011;15183;51.350;11.102;2022-07-06T03:58:02;1.67;;;0.70;;
27804;SDS011;15183;51.350;11.102;2022-07-06T04:00:29;1.13;;;0.60;;
27804;SDS011;15183;51.350;11.102;2022-07-06T04:02:55;2.35;;;0.52;;
27804;SDS011;15183;51.350;11.102;2022-07-06T04:05:22;2.55;;;0.63;;
27804;SDS011;15183;51.350;11.102;2022-07-06T04:07:48;4.88;;;0.60;;
27804;SDS011;15183;51.350;11.102;2022-07-06T04:10:18;0.98;;;0.52;;
27804;SDS011;15183;51.350;11.102;2022-07-06T04:12:45;1.10;;;0.57;;
27804;SDS011;15183;51.350;11.102;2022-07-06T04:15:11;3.47;;;0.85;;
27804;SDS011;15183;51.350;11.102;2022-07-06T04:17:38;1.23;;;0.70;;
27804;SDS011;15183;51.350;11.102;2022-07-06T04:20:20;1.10;;;0.70;;
27804;SDS011;15183;51.350;11.102;2022-07-06T04:22:47;1.38;;;0.70;;
27804;SDS011;15183;51.350;11.102;2022-07-06T04:25:15;3.53;;;0.68;;
27804;SDS011;15183;51.350;11.102;2022-07-06T04:27:41;1.98;;;0.90;;
27804;SDS011;15183;51.350;11.102;2022-07-06T04:30:08;3.42;;;1.27;;
27804;SDS011;15183;51.350;11.102;2022-07-06T04:32:35;1.33;;;0.75;;
27804;SDS011;15183;51.350;11.102;2022-07-06T04:35:02;2.83;;;1.20;;
27804;SDS011;15183;51.350;11.102;2022-07-06T04:37:30;1.92;;;1.00;;
27804;SDS011;15183;51.350;11.102;2022-07-06T04:39:57;1.42;;;0.70;;
27804;SDS011;15183;51.350;11.102;2022-07-06T04:42:23;1.42;;;0.70;;
27804;SDS011;15183;51.350;11.102;2022-07-06T04:44:50;4.85;;;0.90;;
27804;SDS011;15183;51.350;11.102;2022-07-06T04:47:19;2.22;;;0.88;;
27804;SDS011;15183;51.350;11.102;2022-07-06T04:49:46;4.35;;;1.10;;
27804;SDS011;15183;51.350;11.102;2022-07-06T04:52:12;1.77;;;0.80;;
27804;SDS011;15183;51.350;11.102;2022-07-06T04:54:39;1.63;;;0.90;;
27804;SDS011;15183;51.350;11.102;2022-07-06T04:57:05;3.00;;;0.90;;
27804;SDS011;15183;51.350;11.102;2022-07-06T04:59:32;1.45;;;0.80;;
27804;SDS011;15183;51.350;11.102;2022-07-06T05:01:58;2.28;;;0.98;;
27804;SDS011;15183;51.350;11.102;2022-07-06T05:04:24;3.47;;;0.70;;
27804;SDS011;15183;51.350;11.102;2022-07-06T05:06:51;2.38;;;0.80;;
27804;SDS011;15183;51.350;11.102;2022-07-06T05:09:17;5.32;;;1.08;;
27804;SDS011;15183;51.350;11.102;2022-07-06T05:11:44;3.28;;;0.85;;
27804;SDS011;15183;51.350;11.102;2022-07-06T05:14:10;4.07;;;0.90;;
27804;SDS011;15183;51.350;11.102;2022-07-06T05:16:37;2.97;;;0.82;;
27804;SDS011;15183;51.350;11.102;2022-07-06T05:19:03;3.97;;;2.28;;
27804;SDS011;15183;51.350;11.102;2022-07-06T05:21:29;4.75;;;1.55;;
27804;SDS011;15183;51.350;11.102;2022-07-06T05:23:56;2.70;;;1.45;;
27804;SDS011;15183;51.350;11.102;2022-07-06T05:26:22;2.22;;;1.30;;
27804;SDS011;15183;51.350;11.102;2022-07-06T05:28:49;3.58;;;1.38;;
27804;SDS011;15183;51.350;11.102;2022-07-06T05:31:15;3.03;;;1.45;;
27804;SDS011;15183;51.350;11.102;2022-07-06T05:33:42;3.42;;;1.60;;
27804;SDS011;15183;51.350;11.102;2022-07-06T05:36:08;4.20;;;1.80;;
27804;SDS011;15183;51.350;11.102;2022-07-06T05:38:35;3.42;;;1.75;;
27804;SDS011;15183;51.350;11.102;2022-07-06T05:41:01;2.28;;;1.38;;
27804;SDS011;15183;51.350;11.102;2022-07-06T05:43:28;4.72;;;1.80;;
27804;SDS011;15183;51.350;11.102;2022-07-06T05:45:54;3.92;;;1.45;;
27804;SDS011;15183;51.350;11.102;2022-07-06T05:48:20;4.38;;;1.58;;
27804;SDS011;15183;51.350;11.102;2022-07-06T05:51:06;3.78;;;1.42;;
27804;SDS011;15183;51.350;11.102;2022-07-06T05:53:32;1.83;;;1.13;;
27804;SDS011;15183;51.350;11.102;2022-07-06T05:55:59;3.67;;;1.48;;
27804;SDS011;15183;51.350;11.102;2022-07-06T05:58:25;4.57;;;1.50;;
27804;SDS011;15183;51.350;11.102;2022-07-06T06:00:52;3.03;;;1.27;;
27804;SDS011;15183;51.350;11.102;2022-07-06T06:03:18;2.30;;;1.20;;
27804;SDS011;15183;51.350;11.102;2022-07-06T06:05:45;2.35;;;1.42;;
27804;SDS011;15183;51.350;11.102;2022-07-06T06:08:11;4.78;;;1.30;;
27804;SDS011;15183;51.350;11.102;2022-07-06T06:10:38;2.45;;;1.27;;
27804;SDS011;15183;51.350;11.102;2022-07-06T06:13:04;2.38;;;1.50;;
27804;SDS011;15183;51.350;11.102;2022-07-06T06:15:31;2.00;;;1.58;;
27804;SDS011;15183;51.350;11.102;2022-07-06T06:17:57;3.63;;;1.58;;
27804;SDS011;15183;51.350;11.102;2022-07-06T06:20:24;4.32;;;1.60;;
27804;SDS011;15183;51.350;11.102;2022-07-06T06:22:51;3.15;;;1.40;;
27804;SDS011;15183;51.350;11.102;2022-07-06T06:25:21;2.17;;;1.05;;
27804;SDS011;15183;51.350;11.102;2022-07-06T06:27:55;1.77;;;1.00;;
27804;SDS011;15183;51.350;11.102;2022-07-06T06:30:21;3.50;;;1.35;;
27804;SDS011;15183;51.350;11.102;2022-07-06T06:32:48;4.55;;;1.38;;
27804;SDS011;15183;51.350;11.102;2022-07-06T06:35:14;2.05;;;1.35;;
27804;SDS011;15183;51.350;11.102;2022-07-06T06:37:40;3.78;;;1.10;;
27804;SDS011;15183;51.350;11.102;2022-07-06T06:40:07;2.58;;;1.10;;
27804;SDS011;15183;51.350;11.102;2022-07-06T06:42:37;3.17;;;1.55;;
27804;SDS011;15183;51.350;11.102;2022-07-06T06:45:04;3.25;;;1.65;;
27804;SDS011;15183;51.350;11.102;2022-07-06T06:47:31;3.53;;;1.38;;
27804;SDS011;15183;51.350;11.102;2022-07-06T06:49:58;2.25;;;1.20;;
27804;SDS011;15183;51.350;11.102;2022-07-06T06:52:24;1.55;;;0.93;;
27804;SDS011;15183;51.350;11.102;2022-07-06T06:54:51;1.23;;;0.88;;
27804;SDS011;15183;51.350;11.102;2022-07-06T06:57:17;1.08;;;0.60;;
27804;SDS011;15183;51.350;11.102;2022-07-06T06:59:44;4.25;;;1.00;;
27804;SDS011;15183;51.350;11.102;2022-07-06T07:02:10;1.95;;;1.00;;
27804;SDS011;15183;51.350;11.102;2022-07-06T07:04:36;2.13;;;0.93;;
27804;SDS011;15183;51.350;11.102;2022-07-06T07:07:03;2.03;;;0.85;;
27804;SDS011;15183;51.350;11.102;2022-07-06T07:09:29;2.50;;;0.80;;
27804;SDS011;15183;51.350;11.102;2022-07-06T07:11:56;4.57;;;0.90;;
27804;SDS011;15183;51.350;11.102;2022-07-06T07:14:23;0.80;;;0.63;;
27804;SDS011;15183;51.350;11.102;2022-07-06T07:16:49;1.40;;;0.60;;
27804;SDS011;15183;51.350;11.102;2022-07-06T07:19:16;1.98;;;0.65;;
27804;SDS011;15183;51.350;11.102;2022-07-06T07:21:42;2.97;;;0.93;;
27804;SDS011;15183;51.350;11.102;2022-07-06T07:24:09;1.98;;;1.10;;
27804;SDS011;15183;51.350;11.102;2022-07-06T07:26:36;1.70;;;0.98;;
27804;SDS011;15183;51.350;11.102;2022-07-06T07:29:03;2.45;;;0.70;;
27804;SDS011;15183;51.350;11.102;2022-07-06T07:31:29;4.38;;;1.00;;
27804;SDS011;15183;51.350;11.102;2022-07-06T07:33:56;1.48;;;0.85;;
27804;SDS011;15183;51.350;11.102;2022-07-06T07:36:24;4.85;;;0.98;;
27804;SDS011;15183;51.350;11.102;2022-07-06T07:38:52;1.73;;;0.95;;
27804;SDS011;15183;51.350;11.102;2022-07-06T07:41:18;2.90;;;0.73;;
27804;SDS011;15183;51.350;11.102;2022-07-06T07:43:45;4.57;;;0.77;;
27804;SDS011;15183;51.350;11.102;2022-07-06T07:46:11;0.88;;;0.30;;
27804;SDS011;15183;51.350;11.102;2022-07-06T07:48:38;4.57;;;0.80;;
27804;SDS011;15183;51.350;11.102;2022-07-06T07:51:04;2.92;;;0.45;;
27804;SDS011;15183;51.350;11.102;2022-07-06T07:53:30;1.38;;;0.55;;
27804;SDS011;15183;51.350;11.102;2022-07-06T07:55:57;1.83;;;0.60;;
27804;SDS011;15183;51.350;11.102;2022-07-06T07:58:24;1.73;;;0.68;;
27804;SDS011;15183;51.350;11.102;2022-07-06T08:00:51;2.28;;;0.50;;
27804;SDS011;15183;51.350;11.102;2022-07-06T08:03:17;0.88;;;0.40;;
27804;SDS011;15183;51.350;11.102;2022-07-06T08:05:44;1.73;;;0.70;;
27804;SDS011;15183;51.350;11.102;2022-07-06T08:08:12;3.15;;;0.60;;
27804;SDS011;15183;51.350;11.102;2022-07-06T08:10:39;2.15;;;0.65;;
27804;SDS011;15183;51.350;11.102;2022-07-06T08:13:05;0.60;;;0.50;;
27804;SDS011;15183;51.350;11.102;2022-07-06T08:15:33;1.88;;;0.63;;
27804;SDS011;15183;51.350;11.102;2022-07-06T08:18:00;3.83;;;1.05;;
27804;SDS011;15183;51.350;11.102;2022-07-06T08:20:26;1.00;;;0.43;;
27804;SDS011;15183;51.350;11.102;2022-07-06T08:22:52;1.25;;;0.50;;
27804;SDS011;15183;51.350;11.102;2022-07-06T08:25:19;3.13;;;0.70;;
27804;SDS011;15183;51.350;11.102;2022-07-06T08:27:45;6.47;;;1.17;;
27804;SDS011;15183;51.350;11.102;2022-07-06T08:30:12;2.40;;;0.60;;
27804;SDS011;15183;51.350;11.102;2022-07-06T08:32:39;3.72;;;0.80;;
27804;SDS011;15183;51.350;11.102;2022-07-06T08:35:07;1.85;;;0.57;;
27804;SDS011;15183;51.350;11.102;2022-07-06T08:37:35;1.15;;;0.43;;
27804;SDS011;15183;51.350;11.102;2022-07-06T08:40:02;1.35;;;0.50;;
27804;SDS011;15183;51.350;11.102;2022-07-06T08:42:31;1.08;;;0.40;;
27804;SDS011;15183;51.350;11.102;2022-07-06T08:45:01;1.92;;;0.70;;
27804;SDS011;15183;51.350;11.102;2022-07-06T08:47:31;4.03;;;0.55;;
27804;SDS011;15183;51.350;11.102;2022-07-06T08:50:01;3.67;;;0.60;;
27804;SDS011;15183;51.350;11.102;2022-07-06T08:52:28;5.40;;;0.43;;
27804;SDS011;15183;51.350;11.102;2022-07-06T08:54:55;3.22;;;0.40;;
27804;SDS011;15183;51.350;11.102;2022-07-06T08:57:22;1.63;;;0.65;;
27804;SDS011;15183;51.350;11.102;2022-07-06T08:59:50;4.60;;;0.52;;
27804;SDS011;15183;51.350;11.102;2022-07-06T09:02:17;1.55;;;0.40;;
27804;SDS011;15183;51.350;11.102;2022-07-06T09:04:44;1.10;;;0.40;;
27804;SDS011;15183;51.350;11.102;2022-07-06T09:07:13;2.35;;;0.70;;
27804;SDS011;15183;51.350;11.102;2022-07-06T09:09:41;4.57;;;0.65;;
27804;SDS011;15183;51.350;11.102;2022-07-06T09:12:13;3.53;;;0.50;;
27804;SDS011;15183;51.350;11.102;2022-07-06T09:14:40;1.60;;;0.60;;
27804;SDS011;15183;51.350;11.102;2022-07-06T09:17:06;5.25;;;1.42;;
27804;SDS011;15183;51.350;11.102;2022-07-06T09:19:33;4.07;;;0.70;;
27804;SDS011;15183;51.350;11.102;2022-07-06T09:22:01;2.03;;;1.13;;
27804;SDS011;15183;51.350;11.102;2022-07-06T09:24:28;4.45;;;1.10;;
27804;SDS011;15183;51.350;11.102;2022-07-06T09:26:57;2.58;;;0.80;;
27804;SDS011;15183;51.350;11.102;2022-07-06T09:29:28;2.90;;;1.65;;
27804;SDS011;15183;51.350;11.102;2022-07-06T09:31:56;1.13;;;0.90;;
27804;SDS011;15183;51.350;11.102;2022-07-06T09:34:24;1.58;;;0.60;;
27804;SDS011;15183;51.350;11.102;2022-07-06T09:36:50;2.10;;;0.75;;
27804;SDS011;15183;51.350;11.102;2022-07-06T09:39:20;1.70;;;0.50;;
27804;SDS011;15183;51.350;11.102;2022-07-06T09:41:56;0.93;;;0.88;;
27804;SDS011;15183;51.350;11.102;2022-07-06T09:44:26;2.25;;;0.80;;
27804;SDS011;15183;51.350;11.102;2022-07-06T09:46:58;3.78;;;1.20;;
27804;SDS011;15183;51.350;11.102;2022-07-06T09:49:27;1.00;;;0.60;;
27804;SDS011;15183;51.350;11.102;2022-07-06T09:51:55;1.40;;;0.60;;
27804;SDS011;15183;51.350;11.102;2022-07-06T09:54:26;5.45;;;0.50;;
27804;SDS011;15183;51.350;11.102;2022-07-06T09:56:53;2.35;;;0.50;;
27804;SDS011;15183;51.350;11.102;2022-07-06T09:59:22;2.97;;;0.40;;
27804;SDS011;15183;51.350;11.102;2022-07-06T10:01:55;0.75;;;0.32;;
27804;SDS011;15183;51.350;11.102;2022-07-06T10:04:28;0.80;;;0.45;;
27804;SDS011;15183;51.350;11.102;2022-07-06T10:06:56;3.42;;;0.50;;
27804;SDS011;15183;51.350;11.102;2022-07-06T10:09:24;3.03;;;0.63;;
27804;SDS011;15183;51.350;11.102;2022-07-06T10:11:57;3.25;;;0.40;;
27804;SDS011;15183;51.350;11.102;2022-07-06T10:14:26;2.22;;;0.80;;
27804;SDS011;15183;51.350;11.102;2022-07-06T10:16:59;1.95;;;0.70;;
27804;SDS011;15183;51.350;11.102;2022-07-06T10:19:28;2.53;;;0.40;;
27804;SDS011;15183;51.350;11.102;2022-07-06T10:21:56;2.22;;;0.60;;
27804;SDS011;15183;51.350;11.102;2022-07-06T10:24:27;1.45;;;0.50;;
27804;SDS011;15183;51.350;11.102;2022-07-06T10:26:54;1.75;;;0.50;;
27804;SDS011;15183;51.350;11.102;2022-07-06T10:29:21;1.58;;;0.63;;
27804;SDS011;15183;51.350;11.102;2022-07-06T10:31:49;2.47;;;0.50;;
27804;SDS011;15183;51.350;11.102;2022-07-06T10:34:18;1.95;;;0.65;;
27804;SDS011;15183;51.350;11.102;2022-07-06T10:36:49;0.82;;;0.50;;
27804;SDS011;15183;51.350;11.102;2022-07-06T10:39:33;1.05;;;0.40;;
27804;SDS011;15183;51.350;11.102;2022-07-06T10:42:39;1.63;;;0.63;;
27804;SDS011;15183;51.350;11.102;2022-07-06T10:45:07;0.60;;;0.50;;
27804;SDS011;15183;51.350;11.102;2022-07-06T10:47:35;4.93;;;0.43;;
27804;SDS011;15183;51.350;11.102;2022-07-06T10:50:03;1.25;;;0.60;;
27804;SDS011;15183;51.350;11.102;2022-07-06T10:52:49;1.35;;;0.47;;
27804;SDS011;15183;51.350;11.102;2022-07-06T10:55:31;1.63;;;0.60;;
27804;SDS011;15183;51.350;11.102;2022-07-06T10:58:02;2.60;;;0.60;;
27804;SDS011;15183;51.350;11.102;2022-07-06T11:01:03;5.65;;;0.50;;
27804;SDS011;15183;51.350;11.102;2022-07-06T11:03:38;2.03;;;0.60;;
27804;SDS011;15183;51.350;11.102;2022-07-06T11:06:21;0.85;;;0.52;;
27804;SDS011;15183;51.350;11.102;2022-07-06T11:08:52;2.20;;;0.40;;
27804;SDS011;15183;51.350;11.102;2022-07-06T11:11:23;3.25;;;0.60;;
27804;SDS011;15183;51.350;11.102;2022-07-06T11:14:12;1.67;;;0.50;;
27804;SDS011;15183;51.350;11.102;2022-07-06T11:19:14;1.95;;;0.63;;
27804;SDS011;15183;51.350;11.102;2022-07-06T11:24:20;1.55;;;0.63;;
27804;SDS011;15183;51.350;11.102;2022-07-06T11:26:50;2.58;;;0.50;;
27804;SDS011;15183;51.350;11.102;2022-07-06T11:29:19;2.60;;;0.70;;
27804;SDS011;15183;51.350;11.102;2022-07-06T11:31:48;0.63;;;0.30;;
27804;SDS011;15183;51.350;11.102;2022-07-06T11:34:24;1.23;;;0.40;;
27804;SDS011;15183;51.350;11.102;2022-07-06T11:36:56;3.10;;;0.50;;
27804;SDS011;15183;51.350;11.102;2022-07-06T11:39:30;1.40;;;0.50;;
27804;SDS011;15183;51.350;11.102;2022-07-06T11:41:59;1.80;;;0.52;;
27804;SDS011;15183;51.350;11.102;2022-07-06T11:44:26;1.30;;;0.50;;
27804;SDS011;15183;51.350;11.102;2022-07-06T11:46:53;1.38;;;0.30;;
27804;SDS011;15183;51.350;11.102;2022-07-06T11:49:22;3.80;;;0.40;;
27804;SDS011;15183;51.350;11.102;2022-07-06T11:51:48;3.25;;;0.50;;
27804;SDS011;15183;51.350;11.102;2022-07-06T11:56:49;2.88;;;0.43;;
27804;SDS011;15183;51.350;11.102;2022-07-06T12:02:04;1.45;;;0.45;;
27804;SDS011;15183;51.350;11.102;2022-07-06T12:04:40;0.80;;;0.30;;
27804;SDS011;15183;51.350;11.102;2022-07-06T12:07:09;1.08;;;0.35;;
27804;SDS011;15183;51.350;11.102;2022-07-06T12:09:40;1.38;;;0.30;;
27804;SDS011;15183;51.350;11.102;2022-07-06T12:12:10;1.33;;;0.60;;
27804;SDS011;15183;51.350;11.102;2022-07-06T12:14:39;2.40;;;0.50;;
27804;SDS011;15183;51.350;11.102;2022-07-06T12:17:07;1.10;;;0.40;;
27804;SDS011;15183;51.350;11.102;2022-07-06T12:19:36;3.70;;;0.32;;
27804;SDS011;15183;51.350;11.102;2022-07-06T12:22:03;1.58;;;0.50;;
27804;SDS011;15183;51.350;11.102;2022-07-06T12:24:31;4.30;;;0.50;;
27804;SDS011;15183;51.350;11.102;2022-07-06T12:27:12;1.50;;;0.40;;
27804;SDS011;15183;51.350;11.102;2022-07-06T12:29:47;2.72;;;0.60;;
27804;SDS011;15183;51.350;11.102;2022-07-06T12:32:15;1.00;;;0.43;;
27804;SDS011;15183;51.350;11.102;2022-07-06T12:34:44;1.67;;;0.50;;
27804;SDS011;15183;51.350;11.102;2022-07-06T12:37:11;3.03;;;0.32;;
27804;SDS011;15183;51.350;11.102;2022-07-06T12:39:42;1.48;;;0.30;;
27804;SDS011;15183;51.350;11.102;2022-07-06T12:42:13;0.75;;;0.30;;
27804;SDS011;15183;51.350;11.102;2022-07-06T12:44:43;2.20;;;0.22;;
27804;SDS011;15183;51.350;11.102;2022-07-06T12:47:21;0.60;;;0.30;;
27804;SDS011;15183;51.350;11.102;2022-07-06T12:50:06;1.75;;;0.50;;
27804;SDS011;15183;51.350;11.102;2022-07-06T12:52:37;0.65;;;0.20;;
27804;SDS011;15183;51.350;11.102;2022-07-06T12:55:05;0.75;;;0.40;;
27804;SDS011;15183;51.350;11.102;2022-07-06T12:57:43;2.45;;;0.55;;
27804;SDS011;15183;51.350;11.102;2022-07-06T13:00:14;1.58;;;0.50;;
27804;SDS011;15183;51.350;11.102;2022-07-06T13:02:43;2.08;;;0.47;;
27804;SDS011;15183;51.350;11.102;2022-07-06T13:05:13;0.65;;;0.40;;
27804;SDS011;15183;51.350;11.102;2022-07-06T13:07:45;1.95;;;0.50;;
27804;SDS011;15183;51.350;11.102;2022-07-06T13:10:14;0.85;;;0.50;;
27804;SDS011;15183;51.350;11.102;2022-07-06T13:12:41;1.15;;;0.50;;
27804;SDS011;15183;51.350;11.102;2022-07-06T13:15:10;0.82;;;0.38;;
27804;SDS011;15183;51.350;11.102;2022-07-06T13:17:37;3.53;;;0.88;;
27804;SDS011;15183;51.350;11.102;2022-07-06T13:20:07;0.45;;;0.30;;
27804;SDS011;15183;51.350;11.102;2022-07-06T13:22:35;2.45;;;0.40;;
27804;SDS011;15183;51.350;11.102;2022-07-06T13:25:02;1.95;;;0.30;;
27804;SDS011;15183;51.350;11.102;2022-07-06T13:27:29;1.15;;;0.40;;
27804;SDS011;15183;51.350;11.102;2022-07-06T13:29:55;2.35;;;0.35;;
27804;SDS011;15183;51.350;11.102;2022-07-06T13:32:22;3.13;;;0.40;;
27804;SDS011;15183;51.350;11.102;2022-07-06T13:34:48;1.25;;;0.40;;
27804;SDS011;15183;51.350;11.102;2022-07-06T13:37:15;3.70;;;0.45;;
27804;SDS011;15183;51.350;11.102;2022-07-06T13:39:42;4.20;;;0.60;;
27804;SDS011;15183;51.350;11.102;2022-07-06T13:42:08;1.05;;;0.43;;
27804;SDS011;15183;51.350;11.102;2022-07-06T13:44:35;2.20;;;0.40;;
27804;SDS011;15183;51.350;11.102;2022-07-06T13:47:02;0.65;;;0.30;;
27804;SDS011;15183;51.350;11.102;2022-07-06T13:49:28;4.10;;;0.85;;
27804;SDS011;15183;51.350;11.102;2022-07-06T13:51:55;2.47;;;1.40;;
27804;SDS011;15183;51.350;11.102;2022-07-06T13:54:27;6.18;;;1.92;;
27804;SDS011;15183;51.350;11.102;2022-07-06T13:56:54;3.25;;;0.88;;
27804;SDS011;15183;51.350;11.102;2022-07-06T13:59:21;1.73;;;0.57;;
27804;SDS011;15183;51.350;11.102;2022-07-06T14:01:47;0.82;;;0.30;;
27804;SDS011;15183;51.350;11.102;2022-07-06T14:04:13;5.10;;;0.45;;
27804;SDS011;15183;51.350;11.102;2022-07-06T14:06:40;2.10;;;0.43;;
27804;SDS011;15183;51.350;11.102;2022-07-06T14:09:06;1.80;;;0.50;;
27804;SDS011;15183;51.350;11.102;2022-07-06T14:11:33;2.13;;;0.52;;
27804;SDS011;15183;51.350;11.102;2022-07-06T14:13:59;0.63;;;0.47;;
27804;SDS011;15183;51.350;11.102;2022-07-06T14:16:26;3.10;;;0.95;;
27804;SDS011;15183;51.350;11.102;2022-07-06T14:18:53;0.60;;;0.35;;
27804;SDS011;15183;51.350;11.102;2022-07-06T14:21:19;0.45;;;0.30;;
27804;SDS011;15183;51.350;11.102;2022-07-06T14:23:48;0.73;;;0.40;;
27804;SDS011;15183;51.350;11.102;2022-07-06T14:26:15;0.98;;;0.40;;
27804;SDS011;15183;51.350;11.102;2022-07-06T14:28:41;3.33;;;0.40;;
27804;SDS011;15183;51.350;11.102;2022-07-06T14:31:08;1.95;;;0.90;;
27804;SDS011;15183;51.350;11.102;2022-07-06T14:33:34;2.55;;;0.30;;
27804;SDS011;15183;51.350;11.102;2022-07-06T14:36:04;1.90;;;0.60;;
27804;SDS011;15183;51.350;11.102;2022-07-06T14:38:30;2.08;;;0.50;;
27804;SDS011;15183;51.350;11.102;2022-07-06T14:40:57;1.38;;;0.38;;
27804;SDS011;15183;51.350;11.102;2022-07-06T14:43:23;1.38;;;0.60;;
27804;SDS011;15183;51.350;11.102;2022-07-06T14:45:50;5.30;;;0.50;;
27804;SDS011;15183;51.350;11.102;2022-07-06T14:48:17;0.70;;;0.30;;